OITL  Ardabil  Airport

Ardabil, Iran

Add Bookmark
ICAO OITL
IATA ADU
Type Airport
Status Operational
Latitude
38° 19' 32" N
38.325699
Longitude
48° 25' 27" E
48.424400
Local (GMT +3.5 ) UTC
Dec 7, 2016 05:49 pm Dec 7, 2016 14:19
Sunrise-Sunset Local UTC
Begin Civil Twilight 06:49 am 03:19
Sunrise 07:18 am 03:48
Sunset 04:57 pm 13:27
End Civil Twilight 05:26 pm 13:56
VFR
VFR
MVFR
MVFR
IFR
IFR
LIFR
LIFR
Unknown
No Data

Current Weather

METAR Observed VFR
OITL 071300Z 25004KT CAVOK 00/M14 Q1017 Wed, Dec 7, 2016 @ 13:00 UTC
(1 Hour, 19 Minutes ago)
Visual Flight Rules
Wind Visibility Conditions
250° at 4 knots (7 kph) 10 km or more
  • No significant weather
Temperatures Readings Precipitation
Current Temp
0°C
32°F
Dewpoint
-14°C
7°F
Humidity 34%
Altimeter 30.03" Hg
Sea Level Pressure 1,017 mb
Field Elevation
1,316 m
4,318 ft
None Recorded

Additional weather within a 92.6km radius of OITL

Map ICAO Location
UBBL 58km NE (036°)
VFR
VFR
MVFR
MVFR
IFR
IFR
LIFR
LIFR
Unknown
No Data
-
-

CheckWX.com is intended as a tool to help pilots better visualize weather data. It is not intended as a substitute for an official weather briefing obtained from a Flight Service Station. CheckWX.com does not meet the FAA requirements for an official pre-flight weather briefing. Therefore, it's important that pilots still call and obtain an official FSS pre-flight weather briefing.

© 2007-2016 CheckWX.com
14:19:50 UTC